Time;durP1;ratioP1;P1;durP2;ratioP2;P2;SDS_P1;SDS_P2;PMS_P1;PMS_P2;Temp;Humidity;BMP_temperature;BMP_pressure;BME280_temperature;BME280_humidity;BME280_pressure;Samples;Min_cycle;Max_cycle;Signal;HPM_P1;HPM_P2
2022/02/08 00:01:35;;;;;;;0.10;0.10;;;;;;;;;;1883796;75;26297;-47
2022/02/08 00:04:01;;;;;;;0.20;0.20;;;;;;;;;;1887313;74;26373;-44
2022/02/08 00:06:42;;;;;;;0.10;0.10;;;;;;;;;;1896376;75;26218;-40
2022/02/08 00:09:06;;;;;;;0.40;0.10;;;;;;;;;;1898488;75;26261;-41
2022/02/08 00:11:34;;;;;;;0.23;0.23;;;;;;;;;;1892489;75;26222;-42
2022/02/08 00:14:02;;;;;;;0.20;0.20;;;;;;;;;;1878289;75;26891;-46
2022/02/08 00:16:29;;;;;;;1.00;0.20;;;;;;;;;;1897081;75;26239;-42
2022/02/08 00:18:57;;;;;;;0.10;0.10;;;;;;;;;;1887942;75;26237;-41
2022/02/08 00:21:24;;;;;;;0.20;0.20;;;;;;;;;;1898383;75;26243;-42
2022/02/08 00:23:52;;;;;;;0.15;0.15;;;;;;;;;;1898046;75;26227;-40
2022/02/08 00:26:19;;;;;;;0.10;0.10;;;;;;;;;;1891811;75;26232;-41
2022/02/08 00:28:46;;;;;;;0.20;0.20;;;;;;;;;;1898311;74;26303;-44
2022/02/08 00:31:13;;;;;;;0.20;0.20;;;;;;;;;;1899045;75;26634;-40
2022/02/08 00:33:41;;;;;;;0.42;0.33;;;;;;;;;;1892181;75;26695;-41
2022/02/08 00:36:08;;;;;;;0.10;0.10;;;;;;;;;;1896342;74;26833;-40
2022/02/08 00:38:36;;;;;;;0.28;0.28;;;;;;;;;;1887248;75;26811;-40
2022/02/08 00:41:05;;;;;;;0.20;0.20;;;;;;;;;;1898084;74;26167;-43
2022/02/08 00:43:45;;;;;;;0.20;0.20;;;;;;;;;;1898860;75;26391;-45
2022/02/08 00:46:08;;;;;;;0.20;0.20;;;;;;;;;;1872727;75;26220;-41
2022/02/08 00:48:43;;;;;;;0.20;0.20;;;;;;;;;;1886709;74;26924;-44
2022/02/08 00:51:10;;;;;;;0.30;0.30;;;;;;;;;;1883114;75;26246;-43
2022/02/08 00:53:38;;;;;;;0.10;0.10;;;;;;;;;;1898693;75;26551;-45
2022/02/08 00:56:05;;;;;;;0.20;0.20;;;;;;;;;;1896890;75;26318;-46
2022/02/08 00:58:32;;;;;;;0.35;0.10;;;;;;;;;;1886638;75;26198;-43
2022/02/08 01:01:00;;;;;;;0.10;0.10;;;;;;;;;;1888957;75;26200;-44
2022/02/08 01:03:27;;;;;;;0.30;0.30;;;;;;;;;;1897788;75;27428;-41
2022/02/08 01:06:04;;;;;;;0.23;0.23;;;;;;;;;;1894917;74;26242;-41
2022/02/08 01:08:30;;;;;;;0.20;0.20;;;;;;;;;;1876261;75;26257;-43
2022/02/08 01:10:53;;;;;;;0.20;0.20;;;;;;;;;;1891321;75;26258;-44
2022/02/08 01:13:21;;;;;;;0.10;0.10;;;;;;;;;;1872799;74;26240;-45
2022/02/08 01:15:48;;;;;;;0.30;0.30;;;;;;;;;;1874505;75;26208;-42
2022/02/08 01:18:15;;;;;;;0.80;0.20;;;;;;;;;;1885789;74;26217;-45
2022/02/08 01:20:43;;;;;;;0.20;0.20;;;;;;;;;;1888818;74;26275;-47
2022/02/08 01:23:11;;;;;;;0.20;0.20;;;;;;;;;;1883018;74;27297;-44
2022/02/08 01:25:47;;;;;;;0.13;0.13;;;;;;;;;;1886590;74;26811;-46
2022/02/08 01:28:17;;;;;;;0.20;0.20;;;;;;;;;;1884139;74;26319;-43
2022/02/08 01:30:46;;;;;;;0.30;0.30;;;;;;;;;;1887986;74;27078;-45
2022/02/08 01:38:16;;;;;;;1.35;0.20;;;;;;;;;;1885205;74;26263;-43
2022/02/08 01:46:25;;;;;;;0.37;0.20;;;;;;;;;;1887734;74;26768;-43
2022/02/08 01:49:10;;;;;;;0.20;0.20;;;;;;;;;;1884754;74;25302;-45
2022/02/08 01:51:05;;;;;;;0.30;0.30;;;;;;;;;;1880678;74;26228;-43
2022/02/08 01:53:32;;;;;;;0.75;0.20;;;;;;;;;;1882078;74;26183;-45
2022/02/08 01:56:00;;;;;;;0.17;0.17;;;;;;;;;;1876596;74;26210;-41
2022/02/08 01:58:27;;;;;;;0.17;0.17;;;;;;;;;;1892867;74;26207;-45
2022/02/08 02:00:55;;;;;;;0.80;0.17;;;;;;;;;;1891435;74;26472;-42
2022/02/08 02:03:22;;;;;;;0.50;0.40;;;;;;;;;;1887566;74;26197;-42
2022/02/08 02:05:51;;;;;;;0.95;0.30;;;;;;;;;;1890318;74;26213;-42
2022/02/08 02:08:20;;;;;;;0.57;0.13;;;;;;;;;;1885398;74;26266;-41
2022/02/08 02:10:47;;;;;;;0.20;0.20;;;;;;;;;;1883536;74;26612;-43
2022/02/08 02:13:38;;;;;;;1.17;0.20;;;;;;;;;;1887018;74;26959;-47
2022/02/08 02:15:49;;;;;;;0.75;0.30;;;;;;;;;;1887748;74;26741;-44
2022/02/08 02:18:17;;;;;;;0.10;0.10;;;;;;;;;;1893728;75;26296;-43
2022/02/08 02:20:44;;;;;;;0.20;0.20;;;;;;;;;;1889094;75;26315;-44
2022/02/08 02:23:12;;;;;;;0.20;0.20;;;;;;;;;;1894193;75;26260;-44
2022/02/08 02:25:39;;;;;;;0.45;0.20;;;;;;;;;;1889696;75;26254;-44
2022/02/08 02:28:07;;;;;;;0.20;0.20;;;;;;;;;;1889913;75;26229;-41
2022/02/08 02:30:34;;;;;;;0.30;0.30;;;;;;;;;;1893563;75;26298;-43
2022/02/08 02:33:03;;;;;;;0.10;0.10;;;;;;;;;;1888323;74;26303;-44
2022/02/08 02:35:30;;;;;;;0.20;0.20;;;;;;;;;;1896695;74;26209;-45
2022/02/08 02:37:59;;;;;;;0.20;0.20;;;;;;;;;;1895878;75;26685;-40
2022/02/08 02:40:29;;;;;;;0.10;0.10;;;;;;;;;;1883136;75;26848;-40
2022/02/08 02:42:56;;;;;;;0.13;0.13;;;;;;;;;;1889095;76;26178;-40
2022/02/08 02:45:23;;;;;;;0.20;0.20;;;;;;;;;;1883337;76;26214;-43
2022/02/08 02:47:52;;;;;;;0.20;0.20;;;;;;;;;;1885867;76;26271;-40
2022/02/08 02:50:21;;;;;;;0.30;0.20;;;;;;;;;;1887732;76;26289;-42
2022/02/08 02:52:49;;;;;;;0.10;0.10;;;;;;;;;;1890102;76;26705;-44
2022/02/08 02:55:16;;;;;;;0.45;0.20;;;;;;;;;;1888059;76;26214;-44
2022/02/08 02:57:46;;;;;;;0.60;0.10;;;;;;;;;;1887733;76;25613;-42
2022/02/08 03:00:25;;;;;;;0.10;0.10;;;;;;;;;;1886980;76;26804;-43
2022/02/08 03:02:51;;;;;;;0.15;0.15;;;;;;;;;;1883145;75;26303;-43
2022/02/08 03:05:56;;;;;;;0.13;0.13;;;;;;;;;;1880712;76;26312;-45
2022/02/08 03:18:45;;;;;;;0.17;0.17;;;;;;;;;;1884057;76;26699;-44
2022/02/08 03:21:13;;;;;;;0.30;0.30;;;;;;;;;;1888855;76;26346;-43
2022/02/08 03:23:41;;;;;;;0.20;0.20;;;;;;;;;;1871600;76;26206;-42
2022/02/08 03:26:08;;;;;;;0.20;0.20;;;;;;;;;;1869665;76;26498;-42
2022/02/08 03:28:36;;;;;;;0.93;0.20;;;;;;;;;;1881488;76;26324;-43
2022/02/08 03:31:04;;;;;;;0.20;0.20;;;;;;;;;;1864812;76;26219;-47
2022/02/08 03:33:32;;;;;;;0.20;0.20;;;;;;;;;;1873432;76;26217;-42
2022/02/08 03:35:59;;;;;;;0.10;0.10;;;;;;;;;;1882233;76;26167;-41
2022/02/08 03:38:41;;;;;;;0.13;0.13;;;;;;;;;;1883578;76;26718;-43
2022/02/08 03:41:11;;;;;;;0.28;0.28;;;;;;;;;;1882733;74;27277;-44
2022/02/08 03:43:37;;;;;;;0.10;0.10;;;;;;;;;;1896387;74;26548;-44
2022/02/08 03:46:07;;;;;;;0.25;0.25;;;;;;;;;;1890712;75;26682;-45
2022/02/08 03:48:35;;;;;;;0.20;0.20;;;;;;;;;;1897618;75;26253;-40
2022/02/08 03:51:12;;;;;;;0.10;0.10;;;;;;;;;;1884257;75;26207;-42
2022/02/08 03:53:35;;;;;;;0.10;0.10;;;;;;;;;;1872836;75;26225;-42
2022/02/08 03:56:03;;;;;;;0.30;0.30;;;;;;;;;;1898016;75;26246;-42
2022/02/08 03:58:30;;;;;;;0.10;0.10;;;;;;;;;;1898923;75;26302;-39
2022/02/08 04:03:57;;;;;;;0.20;0.20;;;;;;;;;;1894696;75;26324;-41
2022/02/08 04:06:13;;;;;;;0.37;0.20;;;;;;;;;;1877912;75;26180;-43
2022/02/08 04:08:40;;;;;;;0.20;0.20;;;;;;;;;;1888736;75;26246;-41
2022/02/08 04:11:09;;;;;;;0.40;0.20;;;;;;;;;;1886594;75;26288;-44
2022/02/08 04:13:51;;;;;;;0.10;0.10;;;;;;;;;;1897501;74;26261;-41
2022/02/08 04:16:21;;;;;;;0.20;0.20;;;;;;;;;;1897048;75;26825;-43
2022/02/08 04:18:49;;;;;;;0.20;0.15;;;;;;;;;;1892912;75;26319;-42
2022/02/08 04:34:48;;;;;;;0.10;0.10;;;;;;;;;;1892480;75;26226;-42
2022/02/08 04:40:28;;;;;;;0.10;0.10;;;;;;;;;;1893092;75;26258;-42
2022/02/08 04:45:44;;;;;;;0.17;0.17;;;;;;;;;;1896713;75;26017;-46
2022/02/08 04:50:27;;;;;;;0.17;0.17;;;;;;;;;;1887873;75;26266;-47
2022/02/08 04:53:00;;;;;;;0.03;0.03;;;;;;;;;;1896349;75;25293;-41
2022/02/08 05:00:46;;;;;;;0.10;0.10;;;;;;;;;;1890427;75;26649;-46
2022/02/08 05:41:44;;;;;;;0.35;0.10;;;;;;;;;;1890134;74;26711;-46
2022/02/08 05:44:27;;;;;;;1.07;0.20;;;;;;;;;;1895569;75;26214;-51
2022/02/08 05:46:53;;;;;;;3.92;0.20;;;;;;;;;;1893469;75;26387;-51
2022/02/08 05:49:26;;;;;;;0.37;0.25;;;;;;;;;;1899741;74;26265;-49
2022/02/08 05:54:22;;;;;;;4.12;0.72;;;;;;;;;;1890945;74;26226;-51
2022/02/08 05:56:54;;;;;;;0.25;0.10;;;;;;;;;;1895982;74;26222;-48
2022/02/08 05:59:24;;;;;;;0.20;0.20;;;;;;;;;;1884660;75;26266;-49
2022/02/08 06:01:51;;;;;;;0.20;0.20;;;;;;;;;;1889612;74;27436;-47
2022/02/08 06:04:18;;;;;;;0.10;0.10;;;;;;;;;;1880482;75;26681;-49
2022/02/08 06:06:46;;;;;;;0.30;0.30;;;;;;;;;;1885164;74;26252;-46
2022/02/08 06:09:13;;;;;;;0.30;0.30;;;;;;;;;;1890517;75;26225;-45
2022/02/08 06:11:40;;;;;;;0.00;0.00;;;;;;;;;;1893358;74;26376;-49
2022/02/08 06:14:08;;;;;;;0.30;0.25;;;;;;;;;;1891698;75;26960;-43
2022/02/08 06:16:36;;;;;;;0.47;0.20;;;;;;;;;;1894449;74;26304;-42
2022/02/08 06:19:04;;;;;;;1.00;0.17;;;;;;;;;;1894334;75;26577;-45
2022/02/08 06:21:32;;;;;;;0.50;0.20;;;;;;;;;;1895111;74;26263;-48
2022/02/08 06:23:59;;;;;;;9.23;0.37;;;;;;;;;;1892842;74;26596;-43
2022/02/08 06:26:28;;;;;;;0.10;0.10;;;;;;;;;;1893636;74;26244;-45
2022/02/08 06:29:12;;;;;;;1.40;0.20;;;;;;;;;;1895230;75;26244;-43
2022/02/08 06:31:33;;;;;;;1.70;0.28;;;;;;;;;;1893764;74;26280;-43
2022/02/08 06:34:00;;;;;;;0.55;0.30;;;;;;;;;;1892465;75;26786;-49
2022/02/08 06:36:27;;;;;;;0.28;0.28;;;;;;;;;;1895660;74;26225;-45
2022/02/08 06:38:55;;;;;;;0.47;0.33;;;;;;;;;;1893209;75;25712;-45
2022/02/08 06:41:23;;;;;;;0.60;0.25;;;;;;;;;;1892268;74;26210;-48
2022/02/08 06:43:50;;;;;;;0.37;0.37;;;;;;;;;;1888758;76;26265;-43
2022/02/08 06:46:17;;;;;;;0.23;0.23;;;;;;;;;;1872966;74;26243;-42
2022/02/08 06:48:45;;;;;;;3.83;0.78;;;;;;;;;;1883027;76;26262;-47
2022/02/08 06:51:12;;;;;;;4.62;0.65;;;;;;;;;;1881702;76;26300;-44
2022/02/08 06:53:39;;;;;;;1.60;0.40;;;;;;;;;;1885450;76;26225;-43
2022/02/08 06:56:06;;;;;;;1.00;0.50;;;;;;;;;;1879330;76;26221;-47
2022/02/08 06:59:02;;;;;;;4.95;0.50;;;;;;;;;;1889837;76;26213;-47
2022/02/08 07:01:06;;;;;;;1.45;0.40;;;;;;;;;;1871309;74;26221;-49
2022/02/08 07:03:33;;;;;;;4.30;0.55;;;;;;;;;;1886460;74;26283;-45
2022/02/08 07:06:03;;;;;;;1.75;0.53;;;;;;;;;;1878171;74;26753;-45
2022/02/08 07:08:30;;;;;;;2.67;0.90;;;;;;;;;;1883101;76;26870;-50
2022/02/08 07:10:57;;;;;;;4.33;0.70;;;;;;;;;;1880142;76;26247;-46
2022/02/08 07:13:24;;;;;;;2.10;0.40;;;;;;;;;;1882543;75;26289;-47
2022/02/08 07:15:52;;;;;;;2.90;0.45;;;;;;;;;;1888761;75;26225;-49
2022/02/08 07:18:19;;;;;;;3.25;0.65;;;;;;;;;;1882528;74;26230;-47
2022/02/08 07:20:46;;;;;;;1.75;0.40;;;;;;;;;;1888858;76;26202;-46
2022/02/08 07:23:14;;;;;;;3.77;0.60;;;;;;;;;;1881958;76;26327;-50
2022/02/08 07:25:41;;;;;;;2.12;0.50;;;;;;;;;;1884196;76;26237;-54
2022/02/08 07:28:08;;;;;;;3.25;0.50;;;;;;;;;;1885364;76;26253;-58
2022/02/08 07:30:37;;;;;;;1.82;0.55;;;;;;;;;;1887305;75;26226;-56
2022/02/08 07:33:04;;;;;;;0.95;0.60;;;;;;;;;;1890043;75;26447;-44
2022/02/08 07:35:58;;;;;;;1.50;0.70;;;;;;;;;;1890469;75;26303;-44
2022/02/08 07:38:23;;;;;;;0.95;0.40;;;;;;;;;;1882231;74;26222;-48
2022/02/08 07:43:20;;;;;;;0.62;0.30;;;;;;;;;;1882635;75;25864;-47
2022/02/08 07:45:48;;;;;;;1.72;0.50;;;;;;;;;;1898907;75;26152;-48
2022/02/08 07:48:16;;;;;;;0.62;0.47;;;;;;;;;;1899320;75;26296;-47
2022/02/08 07:50:46;;;;;;;0.40;0.40;;;;;;;;;;1903815;74;26334;-44
2022/02/08 07:53:13;;;;;;;1.77;0.50;;;;;;;;;;1905982;74;26556;-48
2022/02/08 07:55:41;;;;;;;0.30;0.30;;;;;;;;;;1907758;74;26357;-43
2022/02/08 07:58:08;;;;;;;1.10;0.40;;;;;;;;;;1897179;74;26224;-45
2022/02/08 08:00:36;;;;;;;3.90;0.50;;;;;;;;;;1897421;74;25571;-48
2022/02/08 08:03:05;;;;;;;4.03;0.70;;;;;;;;;;1885288;74;26239;-48
2022/02/08 08:05:32;;;;;;;1.80;0.60;;;;;;;;;;1884727;74;26674;-47
2022/02/08 08:08:00;;;;;;;4.08;0.57;;;;;;;;;;1894407;74;26214;-54
2022/02/08 08:10:31;;;;;;;0.88;0.42;;;;;;;;;;1894561;74;26689;-50
2022/02/08 08:12:56;;;;;;;1.60;0.47;;;;;;;;;;1897807;74;26286;-52
2022/02/08 08:18:00;;;;;;;0.75;0.23;;;;;;;;;;1881295;74;26242;-50
2022/02/08 08:20:24;;;;;;;0.98;0.40;;;;;;;;;;1897115;74;26310;-52
2022/02/08 08:22:52;;;;;;;0.57;0.50;;;;;;;;;;1894996;74;26583;-48
2022/02/08 08:25:19;;;;;;;3.02;0.40;;;;;;;;;;1890367;74;26701;-48
2022/02/08 08:27:46;;;;;;;0.70;0.40;;;;;;;;;;1890192;75;26638;-47
2022/02/08 08:30:15;;;;;;;1.27;0.40;;;;;;;;;;1891166;74;26280;-52
2022/02/08 08:32:43;;;;;;;1.80;0.40;;;;;;;;;;1892902;75;26218;-48
2022/02/08 08:35:11;;;;;;;1.10;0.25;;;;;;;;;;1890065;74;26281;-47
2022/02/08 08:37:42;;;;;;;1.27;0.50;;;;;;;;;;1890075;74;26273;-46
2022/02/08 08:41:01;;;;;;;0.90;0.53;;;;;;;;;;1896752;74;26286;-45
2022/02/08 08:42:48;;;;;;;1.57;0.40;;;;;;;;;;1868236;74;26335;-46
2022/02/08 08:50:46;;;;;;;1.12;0.30;;;;;;;;;;1853032;75;26930;-53
2022/02/08 08:52:59;;;;;;;0.98;0.40;;;;;;;;;;1851233;76;26304;-45
2022/02/08 08:55:26;;;;;;;1.85;0.30;;;;;;;;;;1849032;77;26774;-46
2022/02/08 08:57:54;;;;;;;1.27;0.30;;;;;;;;;;1825616;78;26930;-49
2022/02/08 09:00:21;;;;;;;0.78;0.40;;;;;;;;;;1850757;77;26303;-45
2022/02/08 09:02:48;;;;;;;1.27;0.40;;;;;;;;;;1846400;76;26326;-53
2022/02/08 09:05:17;;;;;;;0.35;0.35;;;;;;;;;;1847410;75;26743;-58
2022/02/08 09:07:44;;;;;;;0.20;0.20;;;;;;;;;;1844313;77;26307;-41
2022/02/08 09:10:16;;;;;;;0.25;0.25;;;;;;;;;;1855456;77;26311;-47
2022/02/08 09:13:15;;;;;;;0.30;0.30;;;;;;;;;;1845608;77;28127;-43
2022/02/08 09:23:36;;;;;;;0.30;0.30;;;;;;;;;;1844778;75;26764;-46
2022/02/08 09:26:03;;;;;;;2.72;0.40;;;;;;;;;;1843708;75;26789;-49
2022/02/08 09:28:28;;;;;;;0.20;0.20;;;;;;;;;;1839734;75;26429;-49
2022/02/08 09:30:57;;;;;;;0.30;0.30;;;;;;;;;;1849337;75;26357;-46
2022/02/08 09:33:20;;;;;;;0.30;0.30;;;;;;;;;;1852631;75;26852;-47
2022/02/08 09:35:49;;;;;;;0.82;0.50;;;;;;;;;;1857266;75;26707;-45
2022/02/08 09:38:17;;;;;;;3.47;0.20;;;;;;;;;;1848782;75;26407;-48
2022/02/08 09:40:46;;;;;;;0.50;0.50;;;;;;;;;;1849762;76;26268;-53
2022/02/08 09:43:17;;;;;;;2.22;0.30;;;;;;;;;;1809472;77;26320;-46
2022/02/08 09:45:47;;;;;;;0.40;0.20;;;;;;;;;;1826270;76;26807;-49
2022/02/08 09:48:24;;;;;;;0.53;0.50;;;;;;;;;;1823972;76;26308;-49
2022/02/08 09:50:49;;;;;;;0.20;0.20;;;;;;;;;;1825499;76;26382;-49
2022/02/08 09:53:23;;;;;;;0.62;0.30;;;;;;;;;;1827875;76;26763;-45
2022/02/08 09:55:46;;;;;;;1.55;0.25;;;;;;;;;;1799885;78;26576;-46
2022/02/08 09:58:13;;;;;;;0.20;0.20;;;;;;;;;;1821796;76;26222;-49
2022/02/08 10:00:41;;;;;;;0.28;0.28;;;;;;;;;;1820138;76;26333;-50
2022/02/08 10:03:09;;;;;;;0.20;0.20;;;;;;;;;;1829138;77;26239;-50
2022/02/08 10:05:40;;;;;;;0.62;0.20;;;;;;;;;;1828178;77;26283;-47
2022/02/08 10:08:08;;;;;;;0.30;0.30;;;;;;;;;;1832590;76;26294;-51
2022/02/08 10:10:36;;;;;;;0.20;0.20;;;;;;;;;;1828443;77;26682;-46
2022/02/08 10:23:53;;;;;;;0.20;0.20;;;;;;;;;;1825917;77;26346;-49
2022/02/08 10:26:36;;;;;;;0.45;0.30;;;;;;;;;;1836121;76;26293;-47
2022/02/08 10:29:00;;;;;;;0.28;0.20;;;;;;;;;;1820972;77;26280;-47
2022/02/08 10:31:46;;;;;;;0.20;0.20;;;;;;;;;;1822960;77;26315;-53
2022/02/08 10:39:26;;;;;;;0.23;0.23;;;;;;;;;;1831684;77;26398;-48
2022/02/08 10:41:54;;;;;;;0.68;0.30;;;;;;;;;;1855428;76;26601;-46
2022/02/08 10:44:21;;;;;;;0.20;0.20;;;;;;;;;;1878587;74;27074;-47
2022/02/08 10:46:50;;;;;;;0.20;0.20;;;;;;;;;;1888799;74;26624;-44
2022/02/08 10:49:17;;;;;;;0.40;0.40;;;;;;;;;;1882770;74;26351;-46
2022/02/08 10:51:52;;;;;;;0.17;0.17;;;;;;;;;;1885372;74;26284;-48
2022/02/08 10:54:33;;;;;;;1.55;0.33;;;;;;;;;;1894537;74;26798;-49
2022/02/08 10:57:00;;;;;;;0.20;0.20;;;;;;;;;;1888298;74;26617;-47
2022/02/08 10:59:28;;;;;;;0.25;0.25;;;;;;;;;;1891001;74;26220;-54
2022/02/08 11:01:58;;;;;;;0.30;0.20;;;;;;;;;;1896579;75;26297;-48
2022/02/08 11:04:32;;;;;;;0.33;0.20;;;;;;;;;;1889607;74;26340;-50
2022/02/08 11:07:10;;;;;;;0.23;0.23;;;;;;;;;;1892853;74;26266;-45
2022/02/08 11:09:38;;;;;;;0.20;0.20;;;;;;;;;;1887301;75;26821;-51
2022/02/08 11:12:03;;;;;;;0.10;0.10;;;;;;;;;;1890656;74;26353;-46
2022/02/08 11:14:38;;;;;;;0.30;0.30;;;;;;;;;;1883736;74;26286;-46
2022/02/08 11:23:06;;;;;;;0.23;0.23;;;;;;;;;;1889532;75;26210;-48
2022/02/08 11:24:50;;;;;;;0.30;0.30;;;;;;;;;;1867324;75;26197;-45
2022/02/08 11:27:19;;;;;;;0.30;0.30;;;;;;;;;;1891212;75;26379;-46
2022/02/08 11:30:06;;;;;;;1.30;0.20;;;;;;;;;;1887209;76;26345;-45
2022/02/08 11:32:45;;;;;;;0.30;0.30;;;;;;;;;;1907840;74;26333;-48
2022/02/08 11:46:38;;;;;;;0.35;0.35;;;;;;;;;;1888064;76;26760;-47
2022/02/08 11:49:44;;;;;;;0.25;0.25;;;;;;;;;;1880169;76;26380;-46
2022/02/08 11:51:49;;;;;;;0.25;0.25;;;;;;;;;;1859314;76;26257;-45
2022/02/08 11:54:45;;;;;;;0.20;0.20;;;;;;;;;;1881224;76;26235;-50
2022/02/08 12:02:41;;;;;;;0.30;0.30;;;;;;;;;;1872554;76;26706;-47
2022/02/08 12:07:26;;;;;;;0.30;0.30;;;;;;;;;;1879738;76;26218;-47
2022/02/08 12:10:02;;;;;;;0.40;0.30;;;;;;;;;;1887492;76;26826;-46
2022/02/08 12:30:09;;;;;;;0.65;0.50;;;;;;;;;;1874394;76;26224;-49
2022/02/08 12:32:07;;;;;;;0.40;0.40;;;;;;;;;;1881251;76;26317;-45
2022/02/08 12:34:46;;;;;;;0.65;0.60;;;;;;;;;;1884560;76;26272;-47
2022/02/08 13:01:35;;;;;;;0.55;0.50;;;;;;;;;;1812694;75;26306;-45
2022/02/08 13:04:02;;;;;;;0.53;0.45;;;;;;;;;;1884061;75;26286;-45
2022/02/08 13:20:13;;;;;;;0.45;0.45;;;;;;;;;;1873492;75;26288;-45
2022/02/08 14:14:51;;;;;;;0.30;0.30;;;;;;;;;;1865810;76;26320;-44
2022/02/08 14:19:50;;;;;;;0.35;0.30;;;;;;;;;;1812181;76;26342;-45
2022/02/08 14:22:18;;;;;;;0.60;0.53;;;;;;;;;;1888832;76;26217;-44
2022/02/08 14:30:07;;;;;;;0.30;0.30;;;;;;;;;;1884195;76;26253;-48
2022/02/08 14:33:01;;;;;;;0.47;0.35;;;;;;;;;;1890579;76;26218;-46
2022/02/08 15:10:37;;;;;;;0.85;0.25;;;;;;;;;;1892999;74;26398;-46
2022/02/08 15:13:01;;;;;;;0.20;0.20;;;;;;;;;;1891195;74;26344;-47
2022/02/08 15:15:42;;;;;;;0.20;0.20;;;;;;;;;;1878738;75;26711;-46
2022/02/08 15:17:57;;;;;;;0.30;0.20;;;;;;;;;;1890880;75;26253;-47
2022/02/08 15:20:25;;;;;;;0.30;0.30;;;;;;;;;;1876553;75;26248;-48
2022/02/08 15:22:57;;;;;;;0.10;0.10;;;;;;;;;;1897925;75;26283;-45
2022/02/08 15:25:22;;;;;;;0.23;0.23;;;;;;;;;;1897804;74;26285;-45
2022/02/08 15:27:49;;;;;;;0.20;0.20;;;;;;;;;;1894746;75;26295;-47
2022/02/08 15:30:16;;;;;;;0.57;0.30;;;;;;;;;;1888464;75;26304;-50
2022/02/08 15:32:44;;;;;;;0.40;0.40;;;;;;;;;;1883975;75;26322;-48
2022/02/08 15:35:11;;;;;;;0.20;0.20;;;;;;;;;;1890047;74;26639;-47
2022/02/08 15:37:39;;;;;;;0.20;0.20;;;;;;;;;;1878950;75;26748;-46
2022/02/08 15:40:09;;;;;;;0.20;0.20;;;;;;;;;;1898976;74;26268;-47
2022/02/08 15:42:40;;;;;;;0.47;0.30;;;;;;;;;;1898870;75;26301;-47
2022/02/08 15:45:20;;;;;;;0.20;0.20;;;;;;;;;;1883738;74;26352;-49
2022/02/08 15:47:42;;;;;;;0.40;0.20;;;;;;;;;;1900496;74;26280;-45
2022/02/08 15:50:20;;;;;;;0.65;0.30;;;;;;;;;;1886097;75;26263;-45
2022/02/08 16:08:52;;;;;;;1.85;0.30;;;;;;;;;;1894409;74;26267;-44
2022/02/08 16:14:10;;;;;;;1.22;0.40;;;;;;;;;;1897023;75;26326;-57
2022/02/08 16:16:46;;;;;;;0.68;0.33;;;;;;;;;;1898255;75;26316;-52
2022/02/08 16:22:14;;;;;;;1.10;0.53;;;;;;;;;;1895968;75;26909;-54
2022/02/08 16:32:31;;;;;;;1.72;0.50;;;;;;;;;;1915932;74;26306;-48
2022/02/08 16:59:04;;;;;;;1.35;0.40;;;;;;;;;;1859700;75;26312;-52
2022/02/08 17:01:32;;;;;;;5.65;0.50;;;;;;;;;;1859355;75;26326;-53
2022/02/08 17:04:00;;;;;;;0.62;0.60;;;;;;;;;;1864193;75;26918;-48
2022/02/08 17:06:28;;;;;;;0.47;0.40;;;;;;;;;;1865335;76;26340;-52
2022/02/08 17:09:05;;;;;;;0.42;0.40;;;;;;;;;;1870683;76;26677;-51
2022/02/08 17:11:35;;;;;;;2.30;0.50;;;;;;;;;;1868641;76;26299;-46
2022/02/08 17:16:44;;;;;;;1.17;0.70;;;;;;;;;;1873360;75;26293;-49
2022/02/08 17:46:18;;;;;;;1.05;0.40;;;;;;;;;;1857490;76;26284;-44
2022/02/08 17:48:40;;;;;;;0.40;0.40;;;;;;;;;;1881398;75;26789;-52
2022/02/08 17:51:08;;;;;;;0.42;0.40;;;;;;;;;;1892186;74;26193;-49
2022/02/08 17:53:35;;;;;;;0.42;0.40;;;;;;;;;;1897629;75;26303;-49
2022/02/08 17:56:03;;;;;;;0.47;0.37;;;;;;;;;;1889185;74;26258;-49
2022/02/08 17:58:33;;;;;;;0.45;0.45;;;;;;;;;;1891734;74;26255;-53
2022/02/08 18:01:00;;;;;;;0.50;0.50;;;;;;;;;;1896412;74;26281;-55
2022/02/08 18:03:28;;;;;;;0.40;0.40;;;;;;;;;;1896910;74;26677;-45
2022/02/08 18:05:55;;;;;;;1.45;0.50;;;;;;;;;;1896561;75;26275;-51
2022/02/08 18:08:23;;;;;;;0.50;0.47;;;;;;;;;;1896866;75;26218;-46
2022/02/08 18:10:56;;;;;;;0.50;0.33;;;;;;;;;;1891565;75;26266;-49
2022/02/08 18:13:20;;;;;;;1.02;0.57;;;;;;;;;;1892643;74;26253;-45
2022/02/08 18:15:47;;;;;;;0.60;0.53;;;;;;;;;;1905188;74;26154;-46
2022/02/08 18:18:25;;;;;;;1.92;0.50;;;;;;;;;;1893177;75;27139;-46
2022/02/08 18:20:56;;;;;;;0.40;0.40;;;;;;;;;;1881521;75;26269;-51
2022/02/08 18:27:19;;;;;;;0.70;0.47;;;;;;;;;;1888927;75;26719;-53
2022/02/08 18:52:30;;;;;;;0.50;0.47;;;;;;;;;;1888377;74;26384;-44
2022/02/08 18:56:23;;;;;;;0.37;0.37;;;;;;;;;;1904998;74;26246;-44
2022/02/08 19:13:09;;;;;;;3.83;0.55;;;;;;;;;;1889705;74;26673;-38
2022/02/08 19:17:23;;;;;;;2.22;0.78;;;;;;;;;;1896571;75;26368;-37
2022/02/08 19:20:03;;;;;;;4.00;0.70;;;;;;;;;;1890202;75;26676;-36
2022/02/08 19:22:27;;;;;;;4.28;0.80;;;;;;;;;;1884350;74;26162;-35
2022/02/08 19:24:55;;;;;;;3.27;0.78;;;;;;;;;;1895229;75;26221;-36
2022/02/08 19:27:22;;;;;;;1.55;0.60;;;;;;;;;;1897127;74;26671;-36
2022/02/08 19:29:49;;;;;;;1.42;0.72;;;;;;;;;;1892049;74;26210;-36
2022/02/08 19:32:17;;;;;;;7.53;1.00;;;;;;;;;;1889007;74;26218;-37
2022/02/08 19:34:45;;;;;;;1.40;0.60;;;;;;;;;;1889362;75;26300;-36
2022/02/08 19:37:15;;;;;;;1.12;0.55;;;;;;;;;;1897121;74;27880;-37
2022/02/08 19:39:43;;;;;;;1.85;0.65;;;;;;;;;;1892984;74;26329;-37
2022/02/08 19:42:13;;;;;;;1.17;0.47;;;;;;;;;;1895351;74;26205;-36
2022/02/08 19:44:41;;;;;;;1.70;0.72;;;;;;;;;;1893668;74;26356;-36
2022/02/08 19:47:09;;;;;;;3.17;0.65;;;;;;;;;;1893093;74;26250;-36
2022/02/08 19:49:36;;;;;;;2.10;0.80;;;;;;;;;;1892030;74;26229;-37
2022/02/08 19:52:05;;;;;;;3.12;0.70;;;;;;;;;;1896970;74;26725;-36
2022/02/08 19:54:38;;;;;;;1.22;0.70;;;;;;;;;;1899246;74;26783;-37
2022/02/08 19:57:14;;;;;;;2.55;0.70;;;;;;;;;;1898853;74;26343;-36
2022/02/08 19:59:36;;;;;;;3.02;0.98;;;;;;;;;;1890044;74;26229;-35
2022/02/08 20:02:04;;;;;;;4.95;0.57;;;;;;;;;;1893033;74;26883;-37
2022/02/08 20:04:35;;;;;;;3.12;0.70;;;;;;;;;;1895255;74;26678;-36
2022/02/08 20:07:04;;;;;;;2.05;0.70;;;;;;;;;;1896396;74;26221;-36
2022/02/08 20:09:31;;;;;;;3.33;0.80;;;;;;;;;;1893476;74;26271;-36
2022/02/08 20:11:59;;;;;;;1.67;0.70;;;;;;;;;;1896449;74;26197;-36
2022/02/08 20:14:26;;;;;;;3.22;0.85;;;;;;;;;;1895284;74;26319;-37
2022/02/08 20:16:54;;;;;;;2.35;0.60;;;;;;;;;;1890396;74;26594;-36
2022/02/08 20:19:22;;;;;;;1.22;0.60;;;;;;;;;;1888316;74;26222;-36
2022/02/08 20:21:55;;;;;;;1.80;0.60;;;;;;;;;;1886821;74;26621;-36
2022/02/08 20:24:18;;;;;;;2.22;0.95;;;;;;;;;;1887368;74;26213;-36
2022/02/08 20:29:26;;;;;;;6.80;0.82;;;;;;;;;;1883841;74;26296;-36
2022/02/08 20:31:53;;;;;;;4.53;0.60;;;;;;;;;;1884280;74;26799;-35
2022/02/08 20:34:22;;;;;;;2.95;0.65;;;;;;;;;;1884488;74;26222;-36
2022/02/08 20:36:50;;;;;;;0.50;0.47;;;;;;;;;;1887302;74;26219;-37
2022/02/08 20:39:18;;;;;;;1.35;0.70;;;;;;;;;;1888017;74;26280;-38
2022/02/08 20:41:46;;;;;;;1.05;0.45;;;;;;;;;;1885252;74;26676;-36
2022/02/08 20:44:16;;;;;;;1.62;0.75;;;;;;;;;;1883535;74;26285;-36
2022/02/08 20:46:51;;;;;;;1.17;0.60;;;;;;;;;;1881537;74;26237;-36
2022/02/08 20:49:12;;;;;;;0.40;0.40;;;;;;;;;;1882996;74;26257;-36
2022/02/08 20:51:43;;;;;;;0.82;0.45;;;;;;;;;;1883745;74;25617;-38
2022/02/08 20:54:09;;;;;;;0.50;0.50;;;;;;;;;;1885629;74;26268;-36
2022/02/08 20:56:37;;;;;;;0.45;0.45;;;;;;;;;;1886018;74;26276;-36
2022/02/08 20:59:08;;;;;;;1.60;0.60;;;;;;;;;;1877245;74;26239;-36
2022/02/08 21:01:40;;;;;;;0.62;0.62;;;;;;;;;;1882931;74;26885;-36
2022/02/08 21:04:42;;;;;;;1.17;0.60;;;;;;;;;;1894910;75;26253;-36
2022/02/08 21:06:39;;;;;;;1.25;0.40;;;;;;;;;;1872573;75;26265;-37
2022/02/08 21:09:07;;;;;;;0.50;0.50;;;;;;;;;;1895882;74;26072;-36
2022/02/08 21:11:37;;;;;;;0.50;0.50;;;;;;;;;;1894722;75;26318;-36
2022/02/08 21:14:05;;;;;;;1.20;0.50;;;;;;;;;;1890544;74;26324;-36
2022/02/08 21:16:39;;;;;;;0.93;0.40;;;;;;;;;;1894071;74;26906;-36
2022/02/08 21:19:03;;;;;;;0.42;0.42;;;;;;;;;;1882910;75;26325;-36
2022/02/08 21:21:31;;;;;;;1.35;0.37;;;;;;;;;;1877081;74;26272;-36
2022/02/08 21:23:58;;;;;;;0.85;0.35;;;;;;;;;;1894468;74;26249;-36
2022/02/08 21:26:33;;;;;;;0.40;0.30;;;;;;;;;;1882054;74;26346;-38
2022/02/08 21:31:58;;;;;;;0.40;0.40;;;;;;;;;;1902353;75;26233;-36
2022/02/08 21:48:15;;;;;;;0.65;0.40;;;;;;;;;;1889200;75;26273;-36
2022/02/08 21:53:16;;;;;;;0.30;0.30;;;;;;;;;;1890752;76;26312;-37
2022/02/08 21:55:41;;;;;;;0.50;0.50;;;;;;;;;;1887005;76;26214;-37
2022/02/08 21:58:10;;;;;;;0.80;0.40;;;;;;;;;;1886519;74;26205;-36
2022/02/08 22:00:38;;;;;;;0.30;0.30;;;;;;;;;;1883935;76;26233;-36
2022/02/08 22:03:07;;;;;;;0.13;0.13;;;;;;;;;;1886422;76;26630;-36
2022/02/08 22:05:34;;;;;;;0.35;0.35;;;;;;;;;;1873924;76;26245;-36
2022/02/08 22:08:07;;;;;;;0.30;0.30;;;;;;;;;;1901780;74;26217;-36
2022/02/08 22:21:17;;;;;;;0.37;0.37;;;;;;;;;;1877864;76;26233;-37
2022/02/08 22:23:54;;;;;;;0.33;0.33;;;;;;;;;;1890397;76;26254;-37
2022/02/08 22:33:59;;;;;;;0.40;0.40;;;;;;;;;;1881624;76;26304;-36
2022/02/08 22:36:37;;;;;;;0.30;0.30;;;;;;;;;;1892509;74;26168;-36
2022/02/08 22:39:04;;;;;;;0.30;0.30;;;;;;;;;;1898903;74;26652;-36
2022/02/08 22:41:40;;;;;;;0.30;0.30;;;;;;;;;;1871854;76;26276;-36
2022/02/08 22:44:04;;;;;;;0.25;0.25;;;;;;;;;;1870831;76;26275;-36